Time;durP1;ratioP1;P1;durP2;ratioP2;P2;SDS_P1;SDS_P2;PMS_P1;PMS_P2;Temp;Humidity;BMP_temperature;BMP_pressure;BME280_temperature;BME280_humidity;BME280_pressure;Samples;Min_cycle;Max_cycle;Signal;HPM_P1;HPM_P2
2021/11/24 00:00:51;;;;;;;7.13;6.40;;;15.20;97.90;;;15.81;48.56;102357.22;5006940;27;97541;-41
2021/11/24 00:03:17;;;;;;;17.57;11.70;;;15.40;97.40;;;15.83;48.42;102358.03;5013328;27;98240;-42
2021/11/24 00:05:43;;;;;;;14.93;10.87;;;15.30;96.50;;;15.75;48.49;102356.44;5005315;27;100357;-41
2021/11/24 00:08:09;;;;;;;8.20;6.67;;;15.20;96.50;;;15.71;48.59;102349.50;5009889;27;97960;-43
2021/11/24 00:10:36;;;;;;;7.60;6.47;;;15.10;97.90;;;15.74;48.51;102344.06;5009312;27;97820;-41
2021/11/24 00:13:06;;;;;;;8.77;7.00;;;15.20;98.10;;;15.83;48.67;102347.38;5030318;27;100243;-43
2021/11/24 00:15:33;;;;;;;12.90;10.37;;;15.30;96.70;;;15.81;48.57;102343.91;5006742;27;99743;-42
2021/11/24 00:17:59;;;;;;;8.03;7.13;;;15.30;96.60;;;15.80;48.34;102347.47;5010881;27;98646;-41
2021/11/24 00:20:25;;;;;;;12.33;9.47;;;15.20;96.80;;;15.76;48.59;102350.22;5011816;27;97284;-41
2021/11/24 00:22:51;;;;;;;8.63;7.13;;;15.20;97.20;;;15.72;48.61;102351.22;5009858;27;98034;-42
2021/11/24 00:25:17;;;;;;;14.60;10.83;;;15.10;97.30;;;15.67;48.64;102341.66;5010091;27;99648;-42
2021/11/24 00:27:43;;;;;;;14.27;11.23;;;15.00;97.20;;;15.62;48.79;102340.91;5004439;27;100014;-41
2021/11/24 00:30:09;;;;;;;12.30;9.47;;;14.90;97.60;;;15.53;49.11;102339.38;5009318;27;97814;-41
2021/11/24 00:32:36;;;;;;;7.80;6.93;;;14.70;97.70;;;15.47;49.35;102340.41;5006948;27;97452;-41
2021/11/24 00:35:03;;;;;;;15.50;11.87;;;14.60;98.30;;;15.46;49.17;102337.81;5019164;27;98488;-41
2021/11/24 00:37:29;;;;;;;10.83;8.73;;;14.60;98.00;;;15.40;49.58;102338.00;5008633;27;98497;-43
2021/11/24 00:39:55;;;;;;;13.90;10.00;;;14.60;98.30;;;15.36;49.68;102341.66;5008701;27;98491;-43
2021/11/24 00:42:21;;;;;;;12.20;8.87;;;14.50;98.10;;;15.31;49.89;102339.13;5009345;27;99205;-43
2021/11/24 00:44:47;;;;;;;13.23;10.10;;;14.50;98.20;;;15.23;49.93;102335.81;5005276;27;98539;-42
2021/11/24 00:47:13;;;;;;;16.23;12.20;;;14.40;98.40;;;15.21;50.02;102331.47;5008726;27;99129;-41
2021/11/24 00:49:40;;;;;;;9.73;7.43;;;14.30;98.50;;;15.23;50.06;102334.97;5003968;27;98101;-42
2021/11/24 00:52:08;;;;;;;8.53;7.07;;;14.40;98.70;;;15.24;50.04;102331.38;4999043;27;97062;-48
2021/11/24 00:54:35;;;;;;;14.53;11.23;;;14.50;98.90;;;15.25;50.01;102327.81;5003190;27;100174;-42
2021/11/24 00:57:01;;;;;;;11.10;9.13;;;14.50;98.40;;;15.24;49.82;102326.06;5010114;27;97741;-41
2021/11/24 00:59:27;;;;;;;11.90;10.50;;;14.50;98.30;;;15.19;50.16;102323.53;5008660;27;99608;-41
2021/11/24 01:01:53;;;;;;;19.70;15.03;;;14.40;98.50;;;15.18;50.12;102327.97;5005780;27;97309;-41
2021/11/24 01:04:19;;;;;;;14.33;10.83;;;14.30;98.60;;;15.18;50.27;102327.97;5007804;27;97747;-41
2021/11/24 01:06:45;;;;;;;15.23;11.57;;;14.30;98.60;;;15.13;49.92;102332.53;5003313;27;98120;-41
2021/11/24 01:09:11;;;;;;;10.83;8.73;;;14.30;98.50;;;15.08;50.50;102330.94;5007330;27;98758;-41
2021/11/24 01:11:38;;;;;;;18.17;13.20;;;14.20;99.10;;;15.06;50.57;102331.00;5007226;27;98089;-41
2021/11/24 01:14:05;;;;;;;20.33;14.90;;;14.20;98.90;;;15.04;50.30;102327.47;4994808;27;99283;-42
2021/11/24 01:16:31;;;;;;;12.07;9.53;;;14.10;98.90;;;14.98;50.62;102324.13;5003980;27;98830;-42
2021/11/24 01:18:57;;;;;;;11.10;8.87;;;14.00;99.20;;;14.98;50.46;102326.78;5006364;27;97495;-41
2021/11/24 01:21:23;;;;;;;13.20;10.57;;;14.10;99.40;;;14.98;50.54;102325.00;5009497;27;98335;-41
2021/11/24 01:23:49;;;;;;;11.00;8.50;;;14.10;99.00;;;14.97;50.62;102320.59;5003130;27;102264;-44
2021/11/24 01:26:15;;;;;;;8.93;7.23;;;14.10;99.30;;;15.02;50.80;102326.66;5009824;27;99973;-41
2021/11/24 01:28:41;;;;;;;8.83;6.93;;;14.30;99.60;;;15.07;50.64;102319.44;5007025;27;99588;-42
2021/11/24 01:31:07;;;;;;;18.83;14.43;;;14.40;99.20;;;15.09;50.24;102312.28;5007119;27;98769;-43
2021/11/24 01:33:33;;;;;;;15.13;11.40;;;14.40;98.40;;;15.10;50.38;102308.72;4997595;27;104940;-42
2021/11/24 01:35:59;;;;;;;10.17;8.10;;;14.40;98.60;;;15.05;50.32;102310.66;4997354;27;100059;-43
2021/11/24 01:38:26;;;;;;;7.93;6.93;;;14.30;98.80;;;15.08;50.30;102302.59;5021073;27;97518;-42
2021/11/24 01:40:53;;;;;;;11.63;8.93;;;14.30;99.30;;;15.09;50.21;102300.78;5001251;27;97097;-42
2021/11/24 01:43:19;;;;;;;8.43;7.33;;;14.40;98.50;;;15.08;50.52;102305.25;5007602;27;99532;-41
2021/11/24 01:45:45;;;;;;;16.00;11.60;;;14.30;99.10;;;15.10;50.45;102306.06;5002620;27;97246;-42
2021/11/24 01:48:11;;;;;;;16.73;12.30;;;14.40;98.40;;;15.04;50.27;102314.19;5007473;27;97610;-45
2021/11/24 01:50:38;;;;;;;8.03;7.10;;;14.20;98.80;;;15.06;50.41;102306.19;4998023;27;99278;-40
2021/11/24 01:53:04;;;;;;;8.33;6.97;;;14.20;99.40;;;15.10;50.27;102303.41;5004649;27;100685;-42
2021/11/24 01:55:30;;;;;;;22.83;17.23;;;14.40;99.20;;;15.07;49.26;102298.19;5022705;27;97183;-42
2021/11/24 01:57:57;;;;;;;8.60;7.23;;;14.40;98.20;;;15.06;50.44;102299.09;5037868;27;97053;-41
2021/11/24 02:00:30;;;;;;;8.10;6.70;;;14.30;99.30;;;15.12;50.37;102296.25;5026021;27;98087;-42
2021/11/24 02:02:56;;;;;;;11.20;9.70;;;14.40;99.40;;;15.16;50.32;102300.56;5022793;27;103060;-41
2021/11/24 02:05:23;;;;;;;8.20;7.00;;;14.50;98.60;;;15.17;50.33;102289.00;5033156;27;100524;-42
2021/11/24 02:07:50;;;;;;;7.37;6.00;;;14.40;98.40;;;15.24;50.02;102288.84;5028652;27;96861;-44
2021/11/24 02:10:19;;;;;;;8.47;6.43;;;14.60;99.60;;;15.34;50.00;102290.31;5031640;27;97497;-42
2021/11/24 02:12:45;;;;;;;8.73;7.40;;;14.80;98.90;;;15.39;49.84;102289.25;5028320;27;99597;-43
2021/11/24 02:15:11;;;;;;;7.37;6.53;;;14.90;98.00;;;15.43;49.57;102285.59;5037168;27;98132;-42
2021/11/24 02:17:39;;;;;;;16.77;12.13;;;14.90;98.00;;;15.44;49.13;102275.81;5031186;27;96965;-41
2021/11/24 02:20:11;;;;;;;13.60;11.13;;;14.90;97.40;;;15.35;49.33;102265.47;5041993;27;97478;-41
2021/11/24 02:22:36;;;;;;;8.17;7.30;;;14.60;97.80;;;15.32;49.87;102265.53;5023025;27;98549;-42
2021/11/24 02:25:03;;;;;;;12.83;10.60;;;14.50;98.70;;;15.31;49.69;102255.81;5036250;27;97061;-41
2021/11/24 02:27:29;;;;;;;13.97;10.57;;;14.50;98.20;;;15.27;50.03;102257.72;5023015;27;97665;-45
2021/11/24 02:29:55;;;;;;;7.13;6.00;;;14.50;98.20;;;15.26;50.10;102255.09;5038279;27;97162;-41
2021/11/24 02:32:21;;;;;;;7.67;6.60;;;14.50;99.20;;;15.30;49.85;102251.44;5050445;27;99443;-42
2021/11/24 02:34:47;;;;;;;10.60;8.93;;;14.70;98.80;;;15.32;49.66;102245.16;5033371;27;97057;-42
2021/11/24 02:37:13;;;;;;;8.33;6.50;;;14.70;97.70;;;15.30;50.08;102246.13;5034903;27;97136;-41
2021/11/24 02:39:39;;;;;;;10.57;8.30;;;14.60;98.60;;;15.30;49.80;102252.31;5034150;27;97015;-41
2021/11/24 02:42:05;;;;;;;8.93;7.73;;;14.60;98.30;;;15.31;50.01;102237.22;5035158;27;97253;-41
2021/11/24 02:44:39;;;;;;;11.83;9.97;;;14.60;98.20;;;15.27;49.85;102238.25;5010258;27;96861;-41
2021/11/24 02:47:21;;;;;;;7.00;6.30;;;14.50;98.50;;;15.29;49.90;102239.06;5031744;27;97343;-41
2021/11/24 02:49:52;;;;;;;7.43;6.67;;;14.60;99.00;;;15.33;49.94;102238.03;5037961;27;97138;-41
2021/11/24 02:52:20;;;;;;;6.80;6.10;;;14.70;98.60;;;15.39;49.82;102241.41;5034460;27;98407;-41
2021/11/24 02:55:02;;;;;;;7.07;6.33;;;14.80;98.80;;;15.51;49.25;102229.50;5030856;27;99612;-41
2021/11/24 02:57:42;;;;;;;12.13;10.07;;;15.10;97.70;;;15.50;49.55;102233.09;5031488;27;97288;-44
2021/11/24 03:00:26;;;;;;;7.10;6.00;;;14.90;97.30;;;15.49;49.41;102228.69;5032243;27;97089;-41
2021/11/24 03:02:52;;;;;;;14.60;11.57;;;14.90;98.00;;;15.43;49.36;102223.56;5031055;27;97028;-41
2021/11/24 03:05:25;;;;;;;11.60;10.17;;;14.80;97.70;;;15.35;49.70;102218.50;5039286;27;99486;-43
2021/11/24 03:07:51;;;;;;;8.90;7.33;;;14.60;98.10;;;15.33;49.87;102216.75;5047028;27;96788;-41
2021/11/24 03:10:18;;;;;;;7.93;7.10;;;14.50;98.70;;;15.32;49.90;102217.69;5038527;27;97344;-41
2021/11/24 03:12:44;;;;;;;13.20;10.80;;;14.50;98.50;;;15.29;49.70;102215.13;5051472;27;96907;-41
2021/11/24 03:15:11;;;;;;;8.57;7.07;;;14.50;98.20;;;15.29;50.04;102210.69;5034056;27;97352;-41
2021/11/24 03:17:37;;;;;;;7.80;6.87;;;14.60;98.70;;;15.32;49.87;102213.25;5017889;27;97171;-41
2021/11/24 03:20:06;;;;;;;6.80;6.00;;;14.70;98.50;;;15.39;49.67;102205.97;5024586;27;96945;-40
2021/11/24 03:22:32;;;;;;;6.87;6.17;;;14.80;98.70;;;15.44;49.41;102196.03;5022747;27;98399;-41
2021/11/24 03:24:59;;;;;;;8.37;7.17;;;14.90;97.90;;;15.48;49.55;102200.38;5028498;27;99927;-41
2021/11/24 03:27:35;;;;;;;7.60;6.60;;;14.90;97.60;;;15.50;49.61;102198.53;5032209;27;97081;-41
2021/11/24 03:30:09;;;;;;;7.77;6.97;;;14.90;97.70;;;15.51;49.67;102191.41;5028217;27;97162;-41
2021/11/24 03:32:35;;;;;;;7.63;6.30;;;14.80;97.90;;;15.48;49.35;102179.97;5032504;27;97337;-41
2021/11/24 03:35:03;;;;;;;13.33;10.53;;;14.80;98.20;;;15.49;49.43;102183.50;5033169;27;96964;-43
2021/11/24 03:37:28;;;;;;;8.20;6.33;;;14.80;97.80;;;15.51;49.52;102184.31;5032019;27;96952;-44
2021/11/24 03:39:54;;;;;;;8.37;6.50;;;14.90;98.10;;;15.54;49.69;102172.69;5033804;27;96921;-42
2021/11/24 03:42:21;;;;;;;7.87;6.60;;;14.90;98.70;;;15.56;49.38;102163.75;5033837;27;97025;-42
2021/11/24 03:44:47;;;;;;;6.83;6.07;;;14.90;98.00;;;15.58;49.23;102172.53;5028723;27;100063;-43
2021/11/24 03:47:14;;;;;;;8.97;6.93;;;14.90;98.50;;;15.62;49.43;102168.91;5033662;27;97891;-42
2021/11/24 03:49:40;;;;;;;14.70;10.97;;;15.00;97.90;;;15.63;49.17;102165.31;5022618;27;97186;-42
2021/11/24 03:52:06;;;;;;;7.00;6.23;;;15.00;97.40;;;15.62;49.31;102158.28;5029679;27;97374;-41
2021/11/24 03:54:33;;;;;;;17.33;13.20;;;15.00;98.30;;;15.61;49.39;102161.81;5031165;27;97157;-41
2021/11/24 03:56:59;;;;;;;6.70;5.87;;;14.90;97.60;;;15.60;49.58;102153.91;5030845;27;99114;-41
2021/11/24 03:59:25;;;;;;;12.40;9.47;;;14.90;98.40;;;15.53;49.67;102147.88;5032238;27;97094;-41
2021/11/24 04:01:51;;;;;;;10.20;6.70;;;14.80;97.70;;;15.48;49.55;102141.84;5027103;27;99453;-41
2021/11/24 04:04:16;;;;;;;11.67;9.30;;;14.70;98.40;;;15.46;49.75;102151.66;5027669;27;99029;-41
2021/11/24 04:06:42;;;;;;;11.40;9.47;;;14.60;98.20;;;15.37;49.67;102136.88;5028218;27;96679;-42
2021/11/24 04:09:08;;;;;;;11.57;10.10;;;14.50;98.10;;;15.35;49.85;102137.84;5029143;27;97282;-43
2021/11/24 04:11:34;;;;;;;14.70;11.60;;;14.50;98.70;;;15.26;50.16;102139.00;5025266;27;102050;-43
2021/11/24 04:14:00;;;;;;;20.50;15.77;;;14.40;98.50;;;15.24;49.89;102139.97;5030919;27;99639;-41
2021/11/24 04:16:26;;;;;;;12.67;10.17;;;14.30;98.50;;;15.15;50.08;102131.34;5022168;27;96942;-42
2021/11/24 04:18:53;;;;;;;14.00;11.33;;;14.20;98.80;;;15.12;50.38;102120.84;5032127;27;97054;-41
2021/11/24 04:21:19;;;;;;;16.50;12.87;;;14.20;99.10;;;15.10;50.33;102122.66;5035942;27;97673;-45
2021/11/24 04:23:45;;;;;;;14.37;10.37;;;14.20;98.90;;;15.04;50.60;102117.53;5029045;27;100046;-42
2021/11/24 04:26:12;;;;;;;12.60;11.13;;;14.10;98.70;;;14.98;50.62;102122.19;5034463;27;96685;-41
2021/11/24 04:28:38;;;;;;;17.93;14.70;;;14.00;99.10;;;14.95;50.81;102122.28;5025139;27;97023;-41
2021/11/24 04:31:07;;;;;;;11.90;9.70;;;14.00;99.20;;;14.93;50.97;102117.03;5018071;27;98452;-41
2021/11/24 04:33:33;;;;;;;11.03;9.33;;;14.00;99.30;;;14.87;50.92;102115.41;5029903;27;97385;-41
2021/11/24 04:35:59;;;;;;;14.67;11.33;;;14.00;99.20;;;14.81;51.18;102110.28;5038833;27;98531;-41
2021/11/24 04:38:25;;;;;;;7.83;7.03;;;13.90;99.60;;;14.82;51.42;102109.38;5026400;27;96819;-42
2021/11/24 04:40:51;;;;;;;12.87;10.97;;;13.90;99.90;;;14.84;51.16;102098.69;5030059;27;96792;-41
2021/11/24 04:43:19;;;;;;;12.23;9.70;;;14.00;99.50;;;14.86;51.35;102099.50;5045022;27;96745;-41
2021/11/24 04:45:47;;;;;;;11.57;8.67;;;14.00;99.50;;;14.87;50.97;102098.59;5034433;27;97656;-41
2021/11/24 04:48:12;;;;;;;13.43;10.73;;;14.00;99.40;;;14.88;51.30;102105.63;5022902;27;96880;-43
2021/11/24 04:50:38;;;;;;;16.70;13.50;;;14.00;99.30;;;14.88;50.91;102105.63;5028228;27;99615;-41
2021/11/24 04:53:04;;;;;;;11.53;9.27;;;14.00;99.20;;;14.88;51.10;102105.63;5027310;27;97533;-41
2021/11/24 04:55:31;;;;;;;16.83;13.60;;;14.00;99.50;;;14.87;50.92;102095.94;5023789;27;97100;-44
2021/11/24 04:57:57;;;;;;;19.93;15.50;;;14.00;99.20;;;14.87;50.98;102098.59;5037839;27;96570;-42
2021/11/24 05:00:23;;;;;;;7.53;6.03;;;14.00;99.30;;;14.86;50.90;102096.84;5032078;27;99067;-42
2021/11/24 05:02:52;;;;;;;10.27;8.87;;;14.00;99.70;;;14.87;50.92;102103.91;5038275;27;97284;-41
2021/11/24 05:05:21;;;;;;;10.10;8.87;;;14.10;99.40;;;14.89;51.20;102099.41;5027341;27;97232;-41
2021/11/24 05:07:47;;;;;;;12.60;10.30;;;14.10;99.30;;;14.91;50.98;102100.25;5025750;27;96882;-41
2021/11/24 05:10:14;;;;;;;12.43;9.87;;;14.10;99.20;;;14.95;50.91;102098.38;5029265;27;97473;-41
2021/11/24 05:12:40;;;;;;;14.33;10.80;;;14.20;99.00;;;14.96;50.76;102103.63;5037609;27;97329;-42
2021/11/24 05:15:10;;;;;;;10.87;9.37;;;14.20;99.30;;;14.97;50.89;102094.75;5031590;27;97218;-41
2021/11/24 05:17:40;;;;;;;10.03;8.23;;;14.20;99.30;;;15.00;50.58;102094.63;5022887;27;97061;-41
2021/11/24 05:20:06;;;;;;;18.47;14.07;;;14.20;99.20;;;15.02;50.71;102094.59;5023907;27;97513;-41
2021/11/24 05:22:33;;;;;;;16.60;12.43;;;14.20;98.70;;;15.01;50.97;102101.69;5024674;27;97255;-41
2021/11/24 05:24:59;;;;;;;19.83;15.83;;;14.20;99.00;;;15.00;50.60;102094.63;5028853;27;97302;-42
2021/11/24 05:27:25;;;;;;;11.77;9.53;;;14.10;98.70;;;14.98;50.85;102095.59;5034265;27;99020;-42
2021/11/24 05:29:50;;;;;;;11.53;8.83;;;14.10;99.20;;;15.00;51.04;102094.63;5023493;27;97480;-41
2021/11/24 05:32:16;;;;;;;15.27;12.80;;;14.20;99.40;;;14.98;50.80;102091.16;5036066;27;96693;-43
2021/11/24 05:34:42;;;;;;;13.00;10.63;;;14.20;98.90;;;14.98;50.82;102095.59;5028750;27;96583;-43
2021/11/24 05:37:08;;;;;;;13.87;10.77;;;14.10;99.20;;;14.99;50.99;102098.22;5042294;27;97436;-42
2021/11/24 05:39:36;;;;;;;12.90;10.80;;;14.10;99.10;;;14.95;50.88;102091.25;5027614;27;98937;-42
2021/11/24 05:42:06;;;;;;;14.40;11.70;;;14.10;99.10;;;14.90;50.83;102093.22;5026680;27;98553;-42
2021/11/24 05:44:34;;;;;;;11.47;9.93;;;14.00;99.10;;;14.90;51.07;102090.56;5025138;27;97321;-45
2021/11/24 05:47:08;;;;;;;15.97;11.27;;;14.00;99.60;;;14.88;50.88;102085.25;5023845;27;96868;-43
2021/11/24 05:49:37;;;;;;;14.73;11.37;;;14.00;99.50;;;14.86;50.97;102083.56;5029165;27;102677;-41
2021/11/24 05:52:04;;;;;;;9.90;8.67;;;13.90;99.40;;;14.87;51.13;102082.66;5026912;27;98815;-41
2021/11/24 05:54:30;;;;;;;12.43;9.30;;;14.00;99.50;;;14.85;51.25;102080.03;5026929;27;96689;-43
2021/11/24 05:56:56;;;;;;;15.43;12.17;;;14.00;99.60;;;14.85;51.02;102095.13;5046601;27;97314;-41
2021/11/24 05:59:22;;;;;;;10.10;8.20;;;14.00;99.30;;;14.88;51.24;102084.38;5034593;27;98267;-41
2021/11/24 06:01:48;;;;;;;8.70;7.77;;;14.10;99.70;;;14.91;51.09;102079.00;5022968;27;98995;-44
2021/11/24 06:04:14;;;;;;;17.83;12.93;;;14.10;99.40;;;14.94;50.91;102078.91;5046974;27;97213;-41
2021/11/24 06:06:39;;;;;;;8.60;7.40;;;14.10;99.00;;;14.95;50.94;102074.44;5017595;27;96962;-43
2021/11/24 06:09:06;;;;;;;11.67;10.07;;;14.20;99.30;;;14.98;50.83;102079.66;5032135;27;99785;-43
2021/11/24 06:11:33;;;;;;;8.80;7.70;;;14.20;99.00;;;14.96;50.87;102074.41;5023071;27;96715;-41
2021/11/24 06:13:59;;;;;;;8.47;7.50;;;14.10;99.40;;;14.99;51.00;102076.97;5031420;27;97997;-43
2021/11/24 06:16:25;;;;;;;17.77;14.07;;;14.20;99.60;;;14.99;50.87;102071.63;5035272;27;97106;-44
2021/11/24 06:18:51;;;;;;;7.50;6.63;;;14.20;99.00;;;15.01;50.86;102072.47;5026188;27;100131;-44
2021/11/24 06:21:21;;;;;;;7.37;6.67;;;14.20;99.70;;;15.06;50.92;102078.53;5035930;27;99797;-42
2021/11/24 06:23:48;;;;;;;20.13;14.37;;;14.30;99.20;;;15.07;50.66;102066.97;5027836;27;97645;-43
2021/11/24 06:26:20;;;;;;;7.33;6.53;;;14.30;98.90;;;15.09;50.59;102065.13;5032770;27;96955;-41
2021/11/24 06:28:47;;;;;;;10.33;8.40;;;14.30;99.20;;;15.07;50.75;102064.31;5024111;27;97524;-42
2021/11/24 06:31:12;;;;;;;15.00;10.33;;;14.30;99.20;;;15.08;50.49;102060.72;5034496;27;100046;-44
2021/11/24 06:33:38;;;;;;;14.33;11.17;;;14.30;99.10;;;15.10;50.58;102061.53;5024884;27;96469;-41
2021/11/24 06:36:05;;;;;;;10.63;9.13;;;14.30;99.20;;;15.10;50.61;102064.19;5035202;27;101923;-44
2021/11/24 06:38:31;;;;;;;17.60;13.90;;;14.30;99.30;;;15.10;50.47;102061.53;5023821;27;99761;-43
2021/11/24 06:40:57;;;;;;;7.70;6.50;;;14.30;99.10;;;15.10;50.49;102050.91;5022277;27;99866;-43
2021/11/24 06:43:22;;;;;;;12.70;9.93;;;14.30;99.30;;;15.11;50.56;102050.00;5025545;27;96837;-41
2021/11/24 06:45:49;;;;;;;8.07;7.07;;;14.30;99.30;;;15.13;50.64;102048.16;5011721;27;96837;-41
2021/11/24 06:48:15;;;;;;;8.40;6.57;;;14.40;99.30;;;15.17;50.47;102048.91;5040224;27;98028;-44
2021/11/24 06:50:41;;;;;;;8.23;7.10;;;14.40;99.10;;;15.17;50.41;102055.09;5025958;27;99717;-46
2021/11/24 06:53:07;;;;;;;7.20;6.10;;;14.40;99.10;;;15.21;50.32;102053.22;5045282;27;97638;-42
2021/11/24 06:55:33;;;;;;;7.40;6.30;;;14.40;99.10;;;15.21;50.37;102052.38;5027263;27;97043;-43
2021/11/24 06:57:58;;;;;;;6.93;6.00;;;14.40;99.10;;;15.24;50.33;102052.25;5025356;27;97503;-41
2021/11/24 07:00:26;;;;;;;6.67;5.97;;;14.50;98.80;;;15.24;50.28;102049.59;5033351;27;97141;-43
2021/11/24 07:02:52;;;;;;;9.77;7.13;;;14.40;99.50;;;15.27;50.38;102054.81;5014958;27;96748;-46
2021/11/24 07:05:18;;;;;;;10.23;8.60;;;14.50;98.90;;;15.27;50.07;102060.13;5028869;27;96814;-41
2021/11/24 07:07:44;;;;;;;8.17;6.97;;;14.50;98.90;;;15.25;50.25;102056.66;5031751;27;96846;-43
2021/11/24 07:10:10;;;;;;;7.10;6.27;;;14.50;98.90;;;15.23;50.35;102053.19;5026956;27;97170;-44
2021/11/24 07:12:36;;;;;;;6.37;5.63;;;14.40;99.20;;;15.24;50.52;102054.91;5030269;27;96908;-43
2021/11/24 07:15:04;;;;;;;15.00;12.10;;;14.40;99.40;;;15.25;50.39;102052.19;5023419;27;97525;-41
2021/11/24 07:17:30;;;;;;;6.60;5.77;;;14.40;98.70;;;15.26;50.43;102047.75;5025289;27;97731;-45
2021/11/24 07:19:56;;;;;;;11.60;8.53;;;14.40;99.30;;;15.26;50.36;102047.75;5030335;27;97702;-41
2021/11/24 07:22:22;;;;;;;7.03;5.70;;;14.40;99.00;;;15.26;50.66;102053.06;5039642;27;97520;-42
2021/11/24 07:24:48;;;;;;;7.47;6.17;;;14.40;99.10;;;15.28;50.56;102051.22;5022780;27;97352;-43
2021/11/24 07:27:14;;;;;;;8.27;6.97;;;14.50;99.30;;;15.28;50.61;102056.53;5031374;27;97631;-41
2021/11/24 07:29:40;;;;;;;10.10;8.60;;;14.40;99.10;;;15.27;50.44;102054.81;5024074;27;100150;-41
2021/11/24 07:32:06;;;;;;;9.83;7.93;;;14.50;98.90;;;15.29;50.52;102058.28;5016346;27;96907;-42
2021/11/24 07:34:32;;;;;;;10.37;8.60;;;14.40;99.20;;;15.31;50.26;102057.31;5026914;27;96879;-43
2021/11/24 07:36:58;;;;;;;5.97;5.37;;;14.60;99.10;;;15.36;50.17;102054.50;5029220;27;99762;-41
2021/11/24 07:39:24;;;;;;;6.27;5.50;;;14.70;99.70;;;15.46;50.14;102050.59;5034727;27;97041;-43
2021/11/24 07:41:50;;;;;;;5.87;5.27;;;14.90;99.00;;;15.53;49.76;102041.50;5045255;27;97761;-43
2021/11/24 07:44:16;;;;;;;9.37;7.30;;;15.00;98.50;;;15.60;49.64;102037.72;5036227;27;97095;-42
2021/11/24 07:46:42;;;;;;;6.10;5.07;;;15.10;97.80;;;15.64;49.38;102039.38;5022923;27;99653;-45
2021/11/24 07:49:07;;;;;;;6.20;5.60;;;15.10;98.70;;;15.74;49.31;102035.44;5035598;27;97532;-41
2021/11/24 07:51:33;;;;;;;5.53;5.00;;;15.30;98.50;;;15.82;49.15;102039.66;5040230;27;97957;-44
2021/11/24 07:53:59;;;;;;;7.33;5.17;;;15.50;97.50;;;15.84;48.76;102036.00;5032659;27;97194;-43
2021/11/24 07:56:25;;;;;;;6.33;5.20;;;15.50;97.40;;;15.85;48.73;102036.88;5029792;27;97627;-42
2021/11/24 07:58:51;;;;;;;5.53;4.93;;;15.40;97.50;;;15.84;48.96;102035.13;5026841;27;97334;-44
2021/11/24 08:01:17;;;;;;;7.90;6.97;;;15.40;98.10;;;15.81;48.89;102024.63;5043061;27;96784;-43
2021/11/24 08:03:43;;;;;;;10.00;8.23;;;15.30;97.40;;;15.78;48.76;102020.28;5028236;27;97680;-44
2021/11/24 08:06:10;;;;;;;6.27;5.53;;;15.20;97.40;;;15.76;49.00;102022.97;5034252;27;98539;-42
2021/11/24 08:08:35;;;;;;;6.40;5.30;;;15.20;98.10;;;15.75;48.92;102026.56;5031630;27;97972;-44
2021/11/24 08:11:03;;;;;;;12.70;10.13;;;15.20;98.10;;;15.75;48.86;102021.22;5031355;27;96742;-43
2021/11/24 08:13:28;;;;;;;6.47;5.33;;;15.20;97.40;;;15.74;49.13;102024.81;5019878;27;96715;-41
2021/11/24 08:15:54;;;;;;;7.83;6.70;;;15.10;97.90;;;15.73;48.82;102020.41;5023121;27;103982;-41
2021/11/24 08:18:21;;;;;;;5.87;5.27;;;15.10;97.70;;;15.68;49.16;102027.72;5035778;27;97683;-44
2021/11/24 08:20:47;;;;;;;5.90;5.30;;;15.00;98.30;;;15.73;49.15;102017.75;5029155;27;96901;-41
2021/11/24 08:23:13;;;;;;;5.37;4.87;;;15.20;98.40;;;15.80;49.01;102020.22;5024710;27;97431;-42
2021/11/24 08:25:39;;;;;;;6.47;4.83;;;15.40;98.30;;;15.91;48.84;102015.34;5045901;27;100839;-41
2021/11/24 08:28:05;;;;;;;5.30;4.77;;;15.60;97.70;;;16.01;48.38;102006.13;5025583;27;100291;-45
2021/11/24 08:30:31;;;;;;;6.03;5.13;;;15.70;97.60;;;16.08;48.38;102015.63;5028020;27;96847;-43
2021/11/24 08:32:57;;;;;;;6.10;5.27;;;15.80;97.20;;;16.11;48.15;102006.66;5027197;27;96971;-42
2021/11/24 08:35:23;;;;;;;7.50;6.47;;;15.80;96.80;;;16.06;48.28;102007.69;5036005;27;97367;-41
2021/11/24 08:37:50;;;;;;;5.93;5.33;;;15.70;96.60;;;16.07;48.21;102000.59;5028200;27;97547;-46
2021/11/24 08:40:16;;;;;;;8.53;6.93;;;15.60;97.70;;;16.10;48.29;102003.13;5031806;27;97297;-42
2021/11/24 08:42:43;;;;;;;6.27;5.17;;;15.70;96.80;;;16.12;48.05;101998.59;5001998;27;97165;-41
2021/11/24 08:45:11;;;;;;;6.50;5.60;;;15.80;97.40;;;16.12;48.26;101998.59;5032353;27;97244;-41
2021/11/24 08:47:39;;;;;;;4.87;4.27;;;15.80;96.80;;;16.11;48.10;101988.88;5017931;27;100135;-43
2021/11/24 08:50:08;;;;;;;5.77;5.17;;;15.70;97.00;;;16.12;48.30;101992.41;5034945;27;99354;-41
2021/11/24 08:52:34;;;;;;;5.00;4.47;;;15.70;97.10;;;16.14;48.23;101990.56;5032083;27;97345;-43
2021/11/24 08:55:00;;;;;;;5.30;4.80;;;15.70;97.10;;;16.16;48.07;101989.56;5031709;27;97073;-41
2021/11/24 08:57:26;;;;;;;5.80;4.97;;;15.80;97.40;;;16.15;48.28;101985.19;5029008;27;97273;-41
2021/11/24 08:59:52;;;;;;;5.30;4.73;;;15.80;97.20;;;16.17;48.26;101985.97;5030724;27;96927;-41
2021/11/24 09:02:19;;;;;;;5.47;4.87;;;15.80;97.30;;;16.22;48.12;101983.16;5035897;27;97170;-41
2021/11/24 09:04:44;;;;;;;6.13;4.90;;;15.90;97.30;;;16.22;47.84;101989.34;5029755;27;97639;-42
2021/11/24 09:07:10;;;;;;;5.60;4.80;;;15.90;97.10;;;16.39;47.44;101977.19;5032867;27;98014;-43
2021/11/24 09:09:39;;;;;;;6.27;5.23;;;16.10;96.90;;;16.48;47.39;101980.34;5026804;27;96947;-43
2021/11/24 09:12:07;;;;;;;6.70;5.37;;;16.40;95.90;;;16.54;47.11;101979.25;5047176;27;98311;-43
2021/11/24 09:14:32;;;;;;;5.80;5.00;;;16.50;96.20;;;16.57;47.00;101979.13;5047269;27;98138;-42
2021/11/24 09:16:58;;;;;;;5.80;5.20;;;16.50;96.20;;;16.68;46.86;101976.06;5028206;27;98249;-41
2021/11/24 09:19:24;;;;;;;5.83;4.93;;;16.60;95.90;;;16.75;46.86;101978.41;5029251;27;97159;-41
2021/11/24 09:21:50;;;;;;;6.20;5.10;;;16.70;95.80;;;16.81;46.23;101975.50;5026837;27;96983;-42
2021/11/24 09:24:21;;;;;;;10.40;7.23;;;16.80;95.50;;;16.84;46.21;101967.38;5050641;27;99766;-44
2021/11/24 09:29:32;;;;;;;5.40;4.73;;;16.80;94.80;;;16.76;46.54;101964.16;5029707;27;97928;-44
2021/11/24 09:32:03;;;;;;;6.03;5.40;;;16.60;95.40;;;16.73;46.68;101953.63;5031019;27;97301;-43
2021/11/24 09:34:30;;;;;;;6.07;4.67;;;16.50;96.00;;;16.77;46.39;101952.56;5036311;27;102369;-45
2021/11/24 09:36:57;;;;;;;6.10;5.50;;;16.60;95.70;;;16.79;46.46;101947.19;5033597;27;97412;-41
2021/11/24 09:39:24;;;;;;;6.10;5.00;;;16.70;95.70;;;16.89;46.14;101948.53;5031230;27;97270;-41
2021/11/24 09:41:52;;;;;;;7.77;5.30;;;16.80;95.50;;;16.98;45.88;101950.81;5020733;27;97143;-41
2021/11/24 09:44:18;;;;;;;6.57;5.43;;;17.00;95.20;;;16.99;45.76;101944.56;5038024;27;97044;-41
2021/11/24 09:46:47;;;;;;;6.57;5.07;;;17.00;94.90;;;16.79;46.25;101941.88;5024008;27;99453;-41
2021/11/24 09:49:15;;;;;;;6.60;5.50;;;16.70;95.10;;;16.83;46.09;101939.00;5031670;27;96857;-42
2021/11/24 09:51:44;;;;;;;6.67;5.87;;;16.80;95.50;;;16.89;46.24;101933.41;5026829;27;101711;-45
2021/11/24 09:54:13;;;;;;;6.67;5.43;;;16.90;94.80;;;16.94;45.93;101936.75;5032680;27;98393;-43
2021/11/24 09:56:41;;;;;;;6.90;5.90;;;16.90;95.10;;;17.04;46.02;101928.34;5033336;27;97371;-42
2021/11/24 09:59:08;;;;;;;7.10;5.67;;;17.10;94.90;;;17.10;45.55;101925.44;5048857;27;97359;-42
2021/11/24 10:01:39;;;;;;;7.83;6.60;;;17.20;94.70;;;17.17;45.40;101926.91;5028794;27;96868;-42
2021/11/24 10:04:06;;;;;;;6.93;5.83;;;17.30;94.30;;;17.22;45.37;101924.94;5033069;27;97525;-42
2021/11/24 10:06:40;;;;;;;7.73;5.67;;;17.30;94.40;;;17.29;45.06;101921.03;5029234;27;97236;-45
2021/11/24 10:09:11;;;;;;;6.90;5.30;;;17.40;94.20;;;17.31;45.10;101919.16;5037195;27;98289;-41